sensor_id;sensor_type;location;lat;lon;timestamp;temperature;humidity
4615;DHT22;2320;51.362;6.946;2022-12-29T00:02:19;10.90;99.90
4615;DHT22;2320;51.362;6.946;2022-12-29T00:04:44;10.90;99.90
4615;DHT22;2320;51.362;6.946;2022-12-29T00:07:10;10.90;99.90
4615;DHT22;2320;51.362;6.946;2022-12-29T00:09:35;10.80;99.90
4615;DHT22;2320;51.362;6.946;2022-12-29T00:12:02;10.80;99.90
4615;DHT22;2320;51.362;6.946;2022-12-29T00:14:28;10.80;99.90
4615;DHT22;2320;51.362;6.946;2022-12-29T00:17:12;10.90;99.90
4615;DHT22;2320;51.362;6.946;2022-12-29T00:19:37;10.70;99.90
4615;DHT22;2320;51.362;6.946;2022-12-29T00:22:21;10.80;99.90
4615;DHT22;2320;51.362;6.946;2022-12-29T00:25:07;10.80;99.90
4615;DHT22;2320;51.362;6.946;2022-12-29T00:27:52;10.70;99.90
4615;DHT22;2320;51.362;6.946;2022-12-29T00:30:36;10.80;99.90
4615;DHT22;2320;51.362;6.946;2022-12-29T00:33:21;10.80;99.90
4615;DHT22;2320;51.362;6.946;2022-12-29T00:36:12;10.90;99.90
4615;DHT22;2320;51.362;6.946;2022-12-29T00:38:39;10.90;99.90
4615;DHT22;2320;51.362;6.946;2022-12-29T00:41:23;10.90;99.90
4615;DHT22;2320;51.362;6.946;2022-12-29T00:44:08;10.90;99.90
4615;DHT22;2320;51.362;6.946;2022-12-29T00:46:39;10.80;99.90
4615;DHT22;2320;51.362;6.946;2022-12-29T00:49:05;10.80;99.90
4615;DHT22;2320;51.362;6.946;2022-12-29T00:51:49;10.90;99.90
4615;DHT22;2320;51.362;6.946;2022-12-29T00:54:15;10.90;99.90
4615;DHT22;2320;51.362;6.946;2022-12-29T00:56:41;10.80;99.90
4615;DHT22;2320;51.362;6.946;2022-12-29T00:59:08;10.80;99.90
4615;DHT22;2320;51.362;6.946;2022-12-29T01:01:33;10.80;99.90
4615;DHT22;2320;51.362;6.946;2022-12-29T01:03:59;10.80;99.90
4615;DHT22;2320;51.362;6.946;2022-12-29T01:06:25;10.90;99.90
4615;DHT22;2320;51.362;6.946;2022-12-29T01:08:50;10.80;99.90
4615;DHT22;2320;51.362;6.946;2022-12-29T01:11:36;10.80;99.90
4615;DHT22;2320;51.362;6.946;2022-12-29T01:14:01;10.80;99.90
4615;DHT22;2320;51.362;6.946;2022-12-29T01:16:27;10.80;99.90
4615;DHT22;2320;51.362;6.946;2022-12-29T01:18:52;10.90;99.90
4615;DHT22;2320;51.362;6.946;2022-12-29T01:21:18;10.80;99.90
4615;DHT22;2320;51.362;6.946;2022-12-29T01:23:43;10.80;99.90
4615;DHT22;2320;51.362;6.946;2022-12-29T01:26:12;10.90;99.90
4615;DHT22;2320;51.362;6.946;2022-12-29T01:28:38;11.00;99.90
4615;DHT22;2320;51.362;6.946;2022-12-29T01:31:05;10.90;99.90
4615;DHT22;2320;51.362;6.946;2022-12-29T01:33:31;10.90;99.90
4615;DHT22;2320;51.362;6.946;2022-12-29T01:36:00;11.00;99.90
4615;DHT22;2320;51.362;6.946;2022-12-29T01:38:26;11.00;99.90
4615;DHT22;2320;51.362;6.946;2022-12-29T01:40:51;10.90;99.90
4615;DHT22;2320;51.362;6.946;2022-12-29T01:43:16;11.00;99.90
4615;DHT22;2320;51.362;6.946;2022-12-29T01:45:44;11.00;99.90
4615;DHT22;2320;51.362;6.946;2022-12-29T01:48:10;11.00;99.90
4615;DHT22;2320;51.362;6.946;2022-12-29T01:50:38;11.00;99.90
4615;DHT22;2320;51.362;6.946;2022-12-29T01:53:09;11.10;99.90
4615;DHT22;2320;51.362;6.946;2022-12-29T01:55:38;11.10;99.90
4615;DHT22;2320;51.362;6.946;2022-12-29T01:58:04;11.10;99.90
4615;DHT22;2320;51.362;6.946;2022-12-29T02:00:30;11.10;99.90
4615;DHT22;2320;51.362;6.946;2022-12-29T02:02:56;11.10;99.90
4615;DHT22;2320;51.362;6.946;2022-12-29T02:05:35;11.20;99.90
4615;DHT22;2320;51.362;6.946;2022-12-29T02:08:01;11.20;99.90
4615;DHT22;2320;51.362;6.946;2022-12-29T02:10:27;11.20;99.90
4615;DHT22;2320;51.362;6.946;2022-12-29T02:12:53;11.30;99.90
4615;DHT22;2320;51.362;6.946;2022-12-29T02:15:20;11.30;99.90
4615;DHT22;2320;51.362;6.946;2022-12-29T02:20:30;11.30;99.90
4615;DHT22;2320;51.362;6.946;2022-12-29T02:27:53;11.30;99.90
4615;DHT22;2320;51.362;6.946;2022-12-29T02:30:34;11.40;99.90
4615;DHT22;2320;51.362;6.946;2022-12-29T02:33:13;11.40;99.90
4615;DHT22;2320;51.362;6.946;2022-12-29T02:35:51;11.40;99.90
4615;DHT22;2320;51.362;6.946;2022-12-29T02:41:05;11.40;99.90
4615;DHT22;2320;51.362;6.946;2022-12-29T02:43:35;11.50;99.90
4615;DHT22;2320;51.362;6.946;2022-12-29T02:48:45;11.50;99.90
4615;DHT22;2320;51.362;6.946;2022-12-29T02:51:19;11.60;99.90
4615;DHT22;2320;51.362;6.946;2022-12-29T02:53:46;11.60;99.90
4615;DHT22;2320;51.362;6.946;2022-12-29T02:56:30;11.60;99.90
4615;DHT22;2320;51.362;6.946;2022-12-29T02:58:56;11.60;99.90
4615;DHT22;2320;51.362;6.946;2022-12-29T03:09:13;11.70;99.90
4615;DHT22;2320;51.362;6.946;2022-12-29T03:11:45;11.70;99.90
4615;DHT22;2320;51.362;6.946;2022-12-29T03:14:32;11.70;99.90
4615;DHT22;2320;51.362;6.946;2022-12-29T03:17:24;11.70;99.90
4615;DHT22;2320;51.362;6.946;2022-12-29T03:19:52;11.80;99.90
4615;DHT22;2320;51.362;6.946;2022-12-29T03:22:24;11.80;99.90
4615;DHT22;2320;51.362;6.946;2022-12-29T03:25:01;11.90;99.90
4615;DHT22;2320;51.362;6.946;2022-12-29T03:27:32;11.90;99.90
4615;DHT22;2320;51.362;6.946;2022-12-29T03:30:00;11.90;99.90
4615;DHT22;2320;51.362;6.946;2022-12-29T03:32:33;11.90;99.90
4615;DHT22;2320;51.362;6.946;2022-12-29T03:35:00;12.00;99.90
4615;DHT22;2320;51.362;6.946;2022-12-29T03:37:31;12.00;99.90
4615;DHT22;2320;51.362;6.946;2022-12-29T03:39:59;12.00;99.90
4615;DHT22;2320;51.362;6.946;2022-12-29T03:42:26;12.00;99.90
4615;DHT22;2320;51.362;6.946;2022-12-29T03:44:54;11.90;99.90
4615;DHT22;2320;51.362;6.946;2022-12-29T03:47:21;11.80;99.90
4615;DHT22;2320;51.362;6.946;2022-12-29T03:49:47;11.80;99.90
4615;DHT22;2320;51.362;6.946;2022-12-29T03:52:13;11.70;99.90
4615;DHT22;2320;51.362;6.946;2022-12-29T03:54:38;11.70;99.90
4615;DHT22;2320;51.362;6.946;2022-12-29T03:57:03;11.70;99.90
4615;DHT22;2320;51.362;6.946;2022-12-29T03:59:29;11.70;99.90
4615;DHT22;2320;51.362;6.946;2022-12-29T04:01:54;11.70;99.90
4615;DHT22;2320;51.362;6.946;2022-12-29T04:04:20;11.80;99.90
4615;DHT22;2320;51.362;6.946;2022-12-29T04:06:45;11.80;99.90
4615;DHT22;2320;51.362;6.946;2022-12-29T04:09:11;11.90;99.90
4615;DHT22;2320;51.362;6.946;2022-12-29T04:11:36;11.90;99.90
4615;DHT22;2320;51.362;6.946;2022-12-29T04:14:02;12.00;99.90
4615;DHT22;2320;51.362;6.946;2022-12-29T04:16:27;12.00;99.90
4615;DHT22;2320;51.362;6.946;2022-12-29T04:18:53;12.00;99.90
4615;DHT22;2320;51.362;6.946;2022-12-29T04:21:18;12.10;99.90
4615;DHT22;2320;51.362;6.946;2022-12-29T04:23:43;12.10;99.90
4615;DHT22;2320;51.362;6.946;2022-12-29T04:26:09;12.20;99.90
4615;DHT22;2320;51.362;6.946;2022-12-29T04:28:35;12.20;99.90
4615;DHT22;2320;51.362;6.946;2022-12-29T04:31:01;12.20;99.90
4615;DHT22;2320;51.362;6.946;2022-12-29T04:33:27;12.20;99.90
4615;DHT22;2320;51.362;6.946;2022-12-29T04:35:53;12.20;99.90
4615;DHT22;2320;51.362;6.946;2022-12-29T04:38:19;12.30;99.90
4615;DHT22;2320;51.362;6.946;2022-12-29T04:40:44;12.20;99.90
4615;DHT22;2320;51.362;6.946;2022-12-29T04:43:10;12.30;99.90
4615;DHT22;2320;51.362;6.946;2022-12-29T04:45:36;12.30;99.90
4615;DHT22;2320;51.362;6.946;2022-12-29T04:48:01;12.30;99.90
4615;DHT22;2320;51.362;6.946;2022-12-29T04:50:27;12.20;99.90
4615;DHT22;2320;51.362;6.946;2022-12-29T04:52:52;12.20;99.90
4615;DHT22;2320;51.362;6.946;2022-12-29T04:55:18;12.20;99.90
4615;DHT22;2320;51.362;6.946;2022-12-29T04:57:43;12.30;99.90
4615;DHT22;2320;51.362;6.946;2022-12-29T05:00:09;12.30;99.90
4615;DHT22;2320;51.362;6.946;2022-12-29T05:02:35;12.30;99.90
4615;DHT22;2320;51.362;6.946;2022-12-29T05:05:00;12.40;99.90
4615;DHT22;2320;51.362;6.946;2022-12-29T05:07:26;12.40;99.90
4615;DHT22;2320;51.362;6.946;2022-12-29T05:09:51;12.30;99.90
4615;DHT22;2320;51.362;6.946;2022-12-29T05:12:17;12.30;99.90
4615;DHT22;2320;51.362;6.946;2022-12-29T05:14:42;12.30;99.90
4615;DHT22;2320;51.362;6.946;2022-12-29T05:17:08;12.30;99.90
4615;DHT22;2320;51.362;6.946;2022-12-29T05:19:33;12.30;99.90
4615;DHT22;2320;51.362;6.946;2022-12-29T05:21:58;12.20;99.90
4615;DHT22;2320;51.362;6.946;2022-12-29T05:24:24;12.20;99.90
4615;DHT22;2320;51.362;6.946;2022-12-29T05:26:49;12.30;99.90
4615;DHT22;2320;51.362;6.946;2022-12-29T05:29:15;12.30;99.90
4615;DHT22;2320;51.362;6.946;2022-12-29T05:31:40;12.30;99.90
4615;DHT22;2320;51.362;6.946;2022-12-29T05:34:06;12.40;99.90
4615;DHT22;2320;51.362;6.946;2022-12-29T05:36:31;12.40;99.90
4615;DHT22;2320;51.362;6.946;2022-12-29T05:38:57;12.40;99.90
4615;DHT22;2320;51.362;6.946;2022-12-29T05:41:22;12.40;99.90
4615;DHT22;2320;51.362;6.946;2022-12-29T05:43:48;12.30;99.90
4615;DHT22;2320;51.362;6.946;2022-12-29T05:46:13;12.30;99.90
4615;DHT22;2320;51.362;6.946;2022-12-29T05:48:38;12.30;99.90
4615;DHT22;2320;51.362;6.946;2022-12-29T05:51:04;12.30;99.90
4615;DHT22;2320;51.362;6.946;2022-12-29T05:53:29;12.40;99.90
4615;DHT22;2320;51.362;6.946;2022-12-29T05:55:55;12.40;99.90
4615;DHT22;2320;51.362;6.946;2022-12-29T05:58:20;12.30;99.90
4615;DHT22;2320;51.362;6.946;2022-12-29T06:00:46;12.30;99.90
4615;DHT22;2320;51.362;6.946;2022-12-29T06:03:11;12.40;99.90
4615;DHT22;2320;51.362;6.946;2022-12-29T06:05:37;12.40;99.90
4615;DHT22;2320;51.362;6.946;2022-12-29T06:08:02;12.40;99.90
4615;DHT22;2320;51.362;6.946;2022-12-29T06:10:27;12.40;99.90
4615;DHT22;2320;51.362;6.946;2022-12-29T06:12:53;12.40;99.90
4615;DHT22;2320;51.362;6.946;2022-12-29T06:15:19;12.40;99.90
4615;DHT22;2320;51.362;6.946;2022-12-29T06:17:44;12.30;99.90
4615;DHT22;2320;51.362;6.946;2022-12-29T06:20:09;12.30;99.90
4615;DHT22;2320;51.362;6.946;2022-12-29T06:22:35;12.20;99.90
4615;DHT22;2320;51.362;6.946;2022-12-29T06:25:01;12.30;99.90
4615;DHT22;2320;51.362;6.946;2022-12-29T06:27:27;12.20;99.90
4615;DHT22;2320;51.362;6.946;2022-12-29T06:29:52;12.20;99.90
4615;DHT22;2320;51.362;6.946;2022-12-29T06:32:18;12.10;99.90
4615;DHT22;2320;51.362;6.946;2022-12-29T06:34:43;12.10;99.90
4615;DHT22;2320;51.362;6.946;2022-12-29T06:37:10;12.00;99.90
4615;DHT22;2320;51.362;6.946;2022-12-29T06:39:35;12.10;99.90
4615;DHT22;2320;51.362;6.946;2022-12-29T06:42:01;12.00;99.90
4615;DHT22;2320;51.362;6.946;2022-12-29T06:44:26;12.00;99.90
4615;DHT22;2320;51.362;6.946;2022-12-29T06:46:51;12.10;99.90
4615;DHT22;2320;51.362;6.946;2022-12-29T06:49:17;12.20;99.90
4615;DHT22;2320;51.362;6.946;2022-12-29T06:51:43;12.10;99.90
4615;DHT22;2320;51.362;6.946;2022-12-29T06:54:09;12.10;99.90
4615;DHT22;2320;51.362;6.946;2022-12-29T06:56:34;12.20;99.90
4615;DHT22;2320;51.362;6.946;2022-12-29T06:58:59;12.10;99.90
4615;DHT22;2320;51.362;6.946;2022-12-29T07:01:26;12.20;99.90
4615;DHT22;2320;51.362;6.946;2022-12-29T07:03:51;12.20;99.90
4615;DHT22;2320;51.362;6.946;2022-12-29T07:06:17;12.10;99.90
4615;DHT22;2320;51.362;6.946;2022-12-29T07:08:42;12.10;99.90
4615;DHT22;2320;51.362;6.946;2022-12-29T07:11:08;12.10;99.90
4615;DHT22;2320;51.362;6.946;2022-12-29T07:13:34;12.00;99.90
4615;DHT22;2320;51.362;6.946;2022-12-29T07:15:59;12.00;99.90
4615;DHT22;2320;51.362;6.946;2022-12-29T07:18:24;12.00;99.90
4615;DHT22;2320;51.362;6.946;2022-12-29T07:20:50;12.00;99.90
4615;DHT22;2320;51.362;6.946;2022-12-29T07:23:15;12.00;99.90
4615;DHT22;2320;51.362;6.946;2022-12-29T07:25:41;11.90;99.90
4615;DHT22;2320;51.362;6.946;2022-12-29T07:28:06;11.90;99.90
4615;DHT22;2320;51.362;6.946;2022-12-29T07:30:32;11.90;99.90
4615;DHT22;2320;51.362;6.946;2022-12-29T07:32:57;11.90;99.90
4615;DHT22;2320;51.362;6.946;2022-12-29T07:35:23;11.90;99.90
4615;DHT22;2320;51.362;6.946;2022-12-29T07:37:48;11.90;99.90
4615;DHT22;2320;51.362;6.946;2022-12-29T07:40:14;11.90;99.90
4615;DHT22;2320;51.362;6.946;2022-12-29T07:42:40;11.90;99.90
4615;DHT22;2320;51.362;6.946;2022-12-29T07:45:05;12.00;99.90
4615;DHT22;2320;51.362;6.946;2022-12-29T07:47:31;11.90;99.90
4615;DHT22;2320;51.362;6.946;2022-12-29T07:49:56;11.90;99.90
4615;DHT22;2320;51.362;6.946;2022-12-29T07:52:22;11.90;99.90
4615;DHT22;2320;51.362;6.946;2022-12-29T07:54:47;11.90;99.90
4615;DHT22;2320;51.362;6.946;2022-12-29T07:57:12;11.90;99.90
4615;DHT22;2320;51.362;6.946;2022-12-29T07:59:38;12.00;99.90
4615;DHT22;2320;51.362;6.946;2022-12-29T08:02:03;12.00;99.90
4615;DHT22;2320;51.362;6.946;2022-12-29T08:04:29;12.00;99.90
4615;DHT22;2320;51.362;6.946;2022-12-29T08:06:54;11.90;99.90
4615;DHT22;2320;51.362;6.946;2022-12-29T08:09:20;11.90;99.90
4615;DHT22;2320;51.362;6.946;2022-12-29T08:11:45;12.00;99.90
4615;DHT22;2320;51.362;6.946;2022-12-29T08:14:11;11.90;99.90
4615;DHT22;2320;51.362;6.946;2022-12-29T08:16:36;12.00;99.90
4615;DHT22;2320;51.362;6.946;2022-12-29T08:19:02;11.90;99.90
4615;DHT22;2320;51.362;6.946;2022-12-29T08:21:29;11.90;99.90
4615;DHT22;2320;51.362;6.946;2022-12-29T08:23:54;11.80;99.90
4615;DHT22;2320;51.362;6.946;2022-12-29T08:26:20;11.80;99.90
4615;DHT22;2320;51.362;6.946;2022-12-29T08:28:45;11.90;99.90
4615;DHT22;2320;51.362;6.946;2022-12-29T08:31:11;11.90;99.90
4615;DHT22;2320;51.362;6.946;2022-12-29T08:33:36;11.90;99.90
4615;DHT22;2320;51.362;6.946;2022-12-29T08:36:03;11.90;99.90
4615;DHT22;2320;51.362;6.946;2022-12-29T08:38:29;11.90;99.90
4615;DHT22;2320;51.362;6.946;2022-12-29T08:40:55;12.00;99.90
4615;DHT22;2320;51.362;6.946;2022-12-29T08:43:20;12.00;99.90
4615;DHT22;2320;51.362;6.946;2022-12-29T08:45:46;12.00;99.90
4615;DHT22;2320;51.362;6.946;2022-12-29T08:48:11;12.00;99.90
4615;DHT22;2320;51.362;6.946;2022-12-29T08:50:36;12.00;99.90
4615;DHT22;2320;51.362;6.946;2022-12-29T08:53:04;12.00;99.90
4615;DHT22;2320;51.362;6.946;2022-12-29T08:55:29;12.00;99.90
4615;DHT22;2320;51.362;6.946;2022-12-29T08:57:54;12.00;99.90
4615;DHT22;2320;51.362;6.946;2022-12-29T09:00:20;11.90;99.90
4615;DHT22;2320;51.362;6.946;2022-12-29T09:02:45;11.80;99.90
4615;DHT22;2320;51.362;6.946;2022-12-29T09:05:11;11.60;99.90
4615;DHT22;2320;51.362;6.946;2022-12-29T09:07:37;11.40;99.90
4615;DHT22;2320;51.362;6.946;2022-12-29T09:10:02;11.30;99.90
4615;DHT22;2320;51.362;6.946;2022-12-29T09:12:28;11.30;99.90
4615;DHT22;2320;51.362;6.946;2022-12-29T09:14:53;11.30;99.90
4615;DHT22;2320;51.362;6.946;2022-12-29T09:17:19;11.30;99.90
4615;DHT22;2320;51.362;6.946;2022-12-29T09:20:03;11.40;99.90
4615;DHT22;2320;51.362;6.946;2022-12-29T09:22:29;11.60;99.90
4615;DHT22;2320;51.362;6.946;2022-12-29T09:24:54;11.60;99.90
4615;DHT22;2320;51.362;6.946;2022-12-29T09:27:20;11.60;99.90
4615;DHT22;2320;51.362;6.946;2022-12-29T09:29:45;11.60;99.90
4615;DHT22;2320;51.362;6.946;2022-12-29T09:32:11;11.70;99.90
4615;DHT22;2320;51.362;6.946;2022-12-29T09:34:36;11.70;99.90
4615;DHT22;2320;51.362;6.946;2022-12-29T09:37:01;11.80;99.90
4615;DHT22;2320;51.362;6.946;2022-12-29T09:39:27;11.70;99.90
4615;DHT22;2320;51.362;6.946;2022-12-29T09:41:58;11.80;99.90
4615;DHT22;2320;51.362;6.946;2022-12-29T09:46:56;11.80;99.90
4615;DHT22;2320;51.362;6.946;2022-12-29T09:51:52;11.80;99.90
4615;DHT22;2320;51.362;6.946;2022-12-29T09:55:19;11.80;99.90
4615;DHT22;2320;51.362;6.946;2022-12-29T09:57:20;11.80;99.90
4615;DHT22;2320;51.362;6.946;2022-12-29T09:59:46;11.80;99.90
4615;DHT22;2320;51.362;6.946;2022-12-29T10:02:16;11.90;99.90
4615;DHT22;2320;51.362;6.946;2022-12-29T10:04:45;11.90;99.90
4615;DHT22;2320;51.362;6.946;2022-12-29T10:09:43;11.90;99.90
4615;DHT22;2320;51.362;6.946;2022-12-29T10:27:59;12.00;99.90
4615;DHT22;2320;51.362;6.946;2022-12-29T10:30:26;12.00;99.90
4615;DHT22;2320;51.362;6.946;2022-12-29T10:32:56;12.00;99.90
4615;DHT22;2320;51.362;6.946;2022-12-29T10:35:24;12.00;99.90
4615;DHT22;2320;51.362;6.946;2022-12-29T10:40:45;12.20;99.90
4615;DHT22;2320;51.362;6.946;2022-12-29T10:43:20;12.20;99.90
4615;DHT22;2320;51.362;6.946;2022-12-29T10:45:47;12.20;99.90
4615;DHT22;2320;51.362;6.946;2022-12-29T10:48:15;12.20;99.90
4615;DHT22;2320;51.362;6.946;2022-12-29T10:50:43;12.20;99.90
4615;DHT22;2320;51.362;6.946;2022-12-29T10:53:09;12.20;99.90
4615;DHT22;2320;51.362;6.946;2022-12-29T10:55:40;12.20;99.90
4615;DHT22;2320;51.362;6.946;2022-12-29T10:58:07;12.10;99.90
4615;DHT22;2320;51.362;6.946;2022-12-29T11:00:35;12.10;99.90
4615;DHT22;2320;51.362;6.946;2022-12-29T11:07:57;12.10;99.90
4615;DHT22;2320;51.362;6.946;2022-12-29T11:13:00;12.10;99.90
4615;DHT22;2320;51.362;6.946;2022-12-29T11:15:25;12.10;99.90
4615;DHT22;2320;51.362;6.946;2022-12-29T11:17:52;12.10;99.90
4615;DHT22;2320;51.362;6.946;2022-12-29T11:22:55;12.10;99.90
4615;DHT22;2320;51.362;6.946;2022-12-29T11:25:21;12.10;99.90
4615;DHT22;2320;51.362;6.946;2022-12-29T11:30:22;12.00;99.90
4615;DHT22;2320;51.362;6.946;2022-12-29T11:32:54;12.00;99.90
4615;DHT22;2320;51.362;6.946;2022-12-29T11:35:30;11.90;99.90
4615;DHT22;2320;51.362;6.946;2022-12-29T11:37:56;11.90;99.90
4615;DHT22;2320;51.362;6.946;2022-12-29T11:40:22;12.00;99.90
4615;DHT22;2320;51.362;6.946;2022-12-29T11:42:48;12.00;99.90
4615;DHT22;2320;51.362;6.946;2022-12-29T11:45:17;12.00;99.90
4615;DHT22;2320;51.362;6.946;2022-12-29T11:47:51;12.00;99.90
4615;DHT22;2320;51.362;6.946;2022-12-29T11:50:21;12.10;99.90
4615;DHT22;2320;51.362;6.946;2022-12-29T11:52:47;12.10;99.90
4615;DHT22;2320;51.362;6.946;2022-12-29T11:55:20;12.10;99.90
4615;DHT22;2320;51.362;6.946;2022-12-29T11:57:47;12.10;99.90
4615;DHT22;2320;51.362;6.946;2022-12-29T12:00:18;12.20;99.90
4615;DHT22;2320;51.362;6.946;2022-12-29T12:02:48;12.20;99.90
4615;DHT22;2320;51.362;6.946;2022-12-29T12:05:19;12.10;99.90
4615;DHT22;2320;51.362;6.946;2022-12-29T12:07:46;12.10;99.90
4615;DHT22;2320;51.362;6.946;2022-12-29T12:10:16;12.10;99.90
4615;DHT22;2320;51.362;6.946;2022-12-29T12:12:52;12.10;99.90
4615;DHT22;2320;51.362;6.946;2022-12-29T12:15:24;12.10;99.90
4615;DHT22;2320;51.362;6.946;2022-12-29T12:17:51;12.20;99.90
4615;DHT22;2320;51.362;6.946;2022-12-29T12:20:38;12.20;99.90
4615;DHT22;2320;51.362;6.946;2022-12-29T12:25:51;12.20;99.90
4615;DHT22;2320;51.362;6.946;2022-12-29T12:28:59;12.30;99.90
4615;DHT22;2320;51.362;6.946;2022-12-29T12:31:17;12.30;99.90
4615;DHT22;2320;51.362;6.946;2022-12-29T12:33:45;12.30;99.90
4615;DHT22;2320;51.362;6.946;2022-12-29T12:38:54;12.10;99.90
4615;DHT22;2320;51.362;6.946;2022-12-29T12:44:27;12.20;99.90
4615;DHT22;2320;51.362;6.946;2022-12-29T12:46:53;12.20;99.90
4615;DHT22;2320;51.362;6.946;2022-12-29T12:51:56;12.10;99.90
4615;DHT22;2320;51.362;6.946;2022-12-29T12:54:31;12.20;99.90
4615;DHT22;2320;51.362;6.946;2022-12-29T12:57:04;12.10;99.90
4615;DHT22;2320;51.362;6.946;2022-12-29T13:10:19;12.10;99.90
4615;DHT22;2320;51.362;6.946;2022-12-29T13:15:47;12.00;99.90
4615;DHT22;2320;51.362;6.946;2022-12-29T13:26:05;12.00;99.90
4615;DHT22;2320;51.362;6.946;2022-12-29T13:28:38;11.90;99.90
4615;DHT22;2320;51.362;6.946;2022-12-29T13:33:49;12.00;99.90
4615;DHT22;2320;51.362;6.946;2022-12-29T13:36:22;11.90;99.90
4615;DHT22;2320;51.362;6.946;2022-12-29T13:38:51;12.00;99.90
4615;DHT22;2320;51.362;6.946;2022-12-29T13:41:30;12.00;99.90
4615;DHT22;2320;51.362;6.946;2022-12-29T13:43:57;11.90;99.90
4615;DHT22;2320;51.362;6.946;2022-12-29T13:46:25;12.00;99.90
4615;DHT22;2320;51.362;6.946;2022-12-29T13:48:53;11.90;99.90
4615;DHT22;2320;51.362;6.946;2022-12-29T13:51:20;11.90;99.90
4615;DHT22;2320;51.362;6.946;2022-12-29T13:54:10;11.90;99.90
4615;DHT22;2320;51.362;6.946;2022-12-29T14:04:56;12.00;99.90
4615;DHT22;2320;51.362;6.946;2022-12-29T14:07:23;11.90;99.90
4615;DHT22;2320;51.362;6.946;2022-12-29T14:09:50;11.80;99.90
4615;DHT22;2320;51.362;6.946;2022-12-29T14:12:20;11.80;99.90
4615;DHT22;2320;51.362;6.946;2022-12-29T14:14:46;11.80;99.90
4615;DHT22;2320;51.362;6.946;2022-12-29T14:17:11;11.70;99.90
4615;DHT22;2320;51.362;6.946;2022-12-29T14:19:42;11.80;99.90
4615;DHT22;2320;51.362;6.946;2022-12-29T14:22:08;11.80;99.90
4615;DHT22;2320;51.362;6.946;2022-12-29T14:29:47;11.90;99.90
4615;DHT22;2320;51.362;6.946;2022-12-29T14:34:59;11.90;99.90
4615;DHT22;2320;51.362;6.946;2022-12-29T14:37:27;11.90;99.90
4615;DHT22;2320;51.362;6.946;2022-12-29T14:42:37;11.80;99.90
4615;DHT22;2320;51.362;6.946;2022-12-29T14:45:06;11.80;99.90
4615;DHT22;2320;51.362;6.946;2022-12-29T14:47:36;11.80;99.90
4615;DHT22;2320;51.362;6.946;2022-12-29T14:50:24;11.80;99.90
4615;DHT22;2320;51.362;6.946;2022-12-29T14:52:55;11.70;99.90
4615;DHT22;2320;51.362;6.946;2022-12-29T14:57:57;11.70;99.90
4615;DHT22;2320;51.362;6.946;2022-12-29T15:00:25;11.60;99.90
4615;DHT22;2320;51.362;6.946;2022-12-29T15:02:54;11.60;99.90
4615;DHT22;2320;51.362;6.946;2022-12-29T15:05:33;11.60;99.90
4615;DHT22;2320;51.362;6.946;2022-12-29T15:08:00;11.50;99.90
4615;DHT22;2320;51.362;6.946;2022-12-29T15:10:26;11.60;99.90
4615;DHT22;2320;51.362;6.946;2022-12-29T15:13:00;11.50;99.90
4615;DHT22;2320;51.362;6.946;2022-12-29T15:15:27;11.50;99.90
4615;DHT22;2320;51.362;6.946;2022-12-29T15:17:55;11.50;99.90
4615;DHT22;2320;51.362;6.946;2022-12-29T15:20:28;11.50;99.90
4615;DHT22;2320;51.362;6.946;2022-12-29T15:22:54;11.40;99.90
4615;DHT22;2320;51.362;6.946;2022-12-29T15:25:21;11.40;99.90
4615;DHT22;2320;51.362;6.946;2022-12-29T15:27:50;11.40;99.90
4615;DHT22;2320;51.362;6.946;2022-12-29T15:30:16;11.40;99.90
4615;DHT22;2320;51.362;6.946;2022-12-29T15:32:43;11.40;99.90
4615;DHT22;2320;51.362;6.946;2022-12-29T15:38:19;11.40;99.90
4615;DHT22;2320;51.362;6.946;2022-12-29T15:40:45;11.30;99.90
4615;DHT22;2320;51.362;6.946;2022-12-29T15:43:17;11.30;99.90
4615;DHT22;2320;51.362;6.946;2022-12-29T15:45:45;11.30;99.90
4615;DHT22;2320;51.362;6.946;2022-12-29T15:48:16;11.20;99.90
4615;DHT22;2320;51.362;6.946;2022-12-29T15:50:43;11.30;99.90
4615;DHT22;2320;51.362;6.946;2022-12-29T15:53:10;11.10;99.90
4615;DHT22;2320;51.362;6.946;2022-12-29T15:55:37;11.00;99.90
4615;DHT22;2320;51.362;6.946;2022-12-29T15:58:04;10.90;99.90
4615;DHT22;2320;51.362;6.946;2022-12-29T16:00:34;10.90;99.90
4615;DHT22;2320;51.362;6.946;2022-12-29T16:03:03;10.80;99.90
4615;DHT22;2320;51.362;6.946;2022-12-29T16:05:33;10.90;99.90
4615;DHT22;2320;51.362;6.946;2022-12-29T16:07:59;10.90;99.90
4615;DHT22;2320;51.362;6.946;2022-12-29T16:10:32;10.90;99.90
4615;DHT22;2320;51.362;6.946;2022-12-29T16:13:03;10.90;99.90
4615;DHT22;2320;51.362;6.946;2022-12-29T16:15:29;10.90;99.90
4615;DHT22;2320;51.362;6.946;2022-12-29T16:17:55;10.90;99.90
4615;DHT22;2320;51.362;6.946;2022-12-29T16:20:25;10.90;99.90
4615;DHT22;2320;51.362;6.946;2022-12-29T16:22:56;10.90;99.90
4615;DHT22;2320;51.362;6.946;2022-12-29T16:25:24;11.00;99.90
4615;DHT22;2320;51.362;6.946;2022-12-29T16:27:50;11.00;99.90
4615;DHT22;2320;51.362;6.946;2022-12-29T16:30:21;11.00;99.90
4615;DHT22;2320;51.362;6.946;2022-12-29T16:32:47;11.10;99.90
4615;DHT22;2320;51.362;6.946;2022-12-29T16:37:41;11.00;99.90
4615;DHT22;2320;51.362;6.946;2022-12-29T16:40:23;10.90;99.90
4615;DHT22;2320;51.362;6.946;2022-12-29T16:42:53;10.80;99.90
4615;DHT22;2320;51.362;6.946;2022-12-29T16:47:45;10.60;99.90
4615;DHT22;2320;51.362;6.946;2022-12-29T16:50:12;10.70;99.90
4615;DHT22;2320;51.362;6.946;2022-12-29T16:52:38;10.70;99.90
4615;DHT22;2320;51.362;6.946;2022-12-29T16:55:03;10.70;99.90
4615;DHT22;2320;51.362;6.946;2022-12-29T16:57:33;10.70;99.90
4615;DHT22;2320;51.362;6.946;2022-12-29T17:00:01;10.70;99.90
4615;DHT22;2320;51.362;6.946;2022-12-29T17:02:28;10.70;99.90
4615;DHT22;2320;51.362;6.946;2022-12-29T17:04:54;10.70;99.90
4615;DHT22;2320;51.362;6.946;2022-12-29T17:07:20;10.70;99.90
4615;DHT22;2320;51.362;6.946;2022-12-29T17:09:46;10.70;99.90
4615;DHT22;2320;51.362;6.946;2022-12-29T17:12:15;10.70;99.90
4615;DHT22;2320;51.362;6.946;2022-12-29T17:14:43;10.60;99.90
4615;DHT22;2320;51.362;6.946;2022-12-29T17:17:11;10.60;99.90
4615;DHT22;2320;51.362;6.946;2022-12-29T17:19:37;10.60;99.90
4615;DHT22;2320;51.362;6.946;2022-12-29T17:22:17;10.60;99.90
4615;DHT22;2320;51.362;6.946;2022-12-29T17:24:43;10.70;99.90
4615;DHT22;2320;51.362;6.946;2022-12-29T17:27:09;10.60;99.90
4615;DHT22;2320;51.362;6.946;2022-12-29T17:29:43;10.70;99.90
4615;DHT22;2320;51.362;6.946;2022-12-29T17:32:11;10.70;99.90
4615;DHT22;2320;51.362;6.946;2022-12-29T17:34:36;10.80;99.90
4615;DHT22;2320;51.362;6.946;2022-12-29T17:37:02;10.70;99.90
4615;DHT22;2320;51.362;6.946;2022-12-29T17:39:28;10.80;99.90
4615;DHT22;2320;51.362;6.946;2022-12-29T17:41:53;10.70;99.90
4615;DHT22;2320;51.362;6.946;2022-12-29T17:44:20;10.60;99.90
4615;DHT22;2320;51.362;6.946;2022-12-29T17:46:46;10.20;99.90
4615;DHT22;2320;51.362;6.946;2022-12-29T17:49:18;10.00;99.90
4615;DHT22;2320;51.362;6.946;2022-12-29T17:51:44;9.90;99.90
4615;DHT22;2320;51.362;6.946;2022-12-29T17:54:15;9.60;99.90
4615;DHT22;2320;51.362;6.946;2022-12-29T17:56:42;9.40;99.90
4615;DHT22;2320;51.362;6.946;2022-12-29T17:59:10;9.30;99.90
4615;DHT22;2320;51.362;6.946;2022-12-29T18:01:36;9.20;99.90
4615;DHT22;2320;51.362;6.946;2022-12-29T18:04:02;9.10;99.90
4615;DHT22;2320;51.362;6.946;2022-12-29T18:06:27;9.00;99.90
4615;DHT22;2320;51.362;6.946;2022-12-29T18:08:52;9.00;99.90
4615;DHT22;2320;51.362;6.946;2022-12-29T18:11:22;9.00;99.90
4615;DHT22;2320;51.362;6.946;2022-12-29T18:13:48;8.90;99.90